Bookmark and Share
Track history (hours):
 

Gulf Fury

More information available from US FCC via Universal Licensing System and Coast Guard Vessel Documentation Center.

Last reported at 2012-Dec-08 06:33 UTC. Time now 2014-Apr-20 08:52 UTC.
Position N 29°16' W 089°21'.
Warning: this ship's position is years out of date!

Length 50 m; draft 2.2 m.

Type: Passenger vessel. MMSI: 367397160.

NotesDate/timePositionNaut miles runAvg speedWind from/ knotsBaromVisibWave heightAir tempDewpointWater temp
2012-Dec-08 06:33N 29°16' W 089°21'0 0.0
2012-Dec-08 05:37N 29°16' W 089°21'0 0.0
2012-Dec-08 04:34N 29°16' W 089°21'0 0.0
2012-Dec-08 03:33N 29°16' W 089°21'0 0.0
2012-Dec-08 02:34N 29°16' W 089°21'4 3.6
2012-Dec-08 01:34N 29°19' W 089°19'1010.4
2012-Dec-08 00:34N 29°24' W 089°09'8 4.2
2012-Dec-07 22:33N 29°22' W 089°18'7 6.6
2012-Dec-07 21:33N 29°16' W 089°21'0 0.0
2012-Dec-07 20:33N 29°16' W 089°21'1 0.6
2012-Dec-07 19:33N 29°15' W 089°22'1 1.0
2012-Dec-07 18:33N 29°16' W 089°21'0 0.0
2012-Dec-07 17:33N 29°16' W 089°21'0 0.4
2012-Dec-07 16:33N 29°16' W 089°21'4 4.4
2012-Dec-07 15:33N 29°20' W 089°19'1010.0
2012-Dec-07 14:33N 29°22' W 089°08'4 1.0
2012-Dec-07 10:33N 29°21' W 089°03'1312.9
2012-Dec-07 09:33N 29°22' W 089°18'6 6.3
2012-Dec-07 08:33N 29°16' W 089°21'0 0.0
2012-Dec-07 07:33N 29°16' W 089°21'0 0.0
2012-Dec-07 06:33N 29°16' W 089°21'0 0.0
2012-Dec-07 05:37N 29°16' W 089°21'0 0.0
2012-Dec-07 04:34N 29°16' W 089°21'0 0.0
2012-Dec-07 03:34N 29°16' W 089°21'0 0.0
2012-Dec-07 02:33N 29°16' W 089°21'0 0.0
2012-Dec-07 01:34N 29°16' W 089°21'0 0.1
2012-Dec-07 00:34N 29°16' W 089°21'0 0.1
2012-Dec-06 23:33N 29°16' W 089°21'1 0.6
2012-Dec-06 22:34N 29°15' W 089°22'1 0.6
2012-Dec-06 21:33N 29°16' W 089°21'0 0.1
2012-Dec-06 20:33N 29°16' W 089°21'0 0.0
2012-Dec-06 19:34N 29°16' W 089°21'0 0.0
2012-Dec-06 18:33N 29°16' W 089°21'0 0.0
2012-Dec-06 17:33N 29°16' W 089°21'4 4.4
2012-Dec-06 16:34N 29°20' W 089°19'9 9.1
2012-Dec-06 15:33N 29°23' W 089°09'7 1.8
2012-Dec-06 11:34N 29°24' W 089°01'16 8.2
2012-Dec-06 09:34N 29°19' W 089°19'4 4.0
2012-Dec-06 08:34N 29°16' W 089°21'0 0.0
2012-Dec-06 07:33N 29°16' W 089°21'0 0.1
2012-Dec-06 06:34N 29°16' W 089°21'0 0.1
2012-Dec-06 05:37N 29°16' W 089°21'0 0.0
2012-Dec-06 04:34N 29°16' W 089°21'0 0.0
2012-Dec-06 03:33N 29°16' W 089°21'0 0.0
2012-Dec-06 02:33N 29°16' W 089°21'0 0.0
2012-Dec-06 01:33N 29°16' W 089°21'0 0.0
2012-Dec-06 00:33N 29°16' W 089°21'0 0.0
2012-Dec-05 23:33N 29°16' W 089°21'8 8.3
2012-Dec-05 22:33N 29°24' W 089°18'1414.0
2012-Dec-05 21:33N 29°20' W 089°03'4 0.6
2012-Dec-05 14:34N 29°24' W 089°01'1615.6
2012-Dec-05 13:33N 29°25' W 089°19'9 9.2
2012-Dec-05 12:33N 29°16' W 089°21'0 0.0
2012-Dec-05 11:37N 29°16' W 089°21'0 0.0
2012-Dec-05 10:33N 29°16' W 089°21'0 0.1
2012-Dec-05 09:33N 29°16' W 089°21'0 0.0
2012-Dec-05 08:33N 29°16' W 089°21'0 0.0
2012-Dec-05 07:33N 29°16' W 089°21'0 0.0
2012-Dec-05 06:33N 29°16' W 089°21'0 0.0
2012-Dec-05 05:39N 29°16' W 089°21'0 0.0
2012-Dec-05 04:33N 29°16' W 089°21'0 0.0
2012-Dec-05 03:33N 29°16' W 089°21'0 0.0
2012-Dec-05 02:33N 29°16' W 089°21'0 0.0
2012-Dec-05 01:34N 29°16' W 089°21'0 0.0
2012-Dec-05 00:33N 29°16' W 089°21'0 0.0
2012-Dec-04 23:33N 29°16' W 089°21'0 0.0
2012-Dec-04 22:33N 29°16' W 089°21'0 0.0
2012-Dec-04 21:33N 29°16' W 089°21'0 0.0
2012-Dec-04 20:33N 29°16' W 089°21'0 0.0
2012-Dec-04 19:33N 29°16' W 089°21'0 0.0
2012-Dec-04 18:33N 29°16' W 089°21'0 0.0
2012-Dec-04 17:33N 29°16' W 089°21'0 0.0
2012-Dec-04 16:33N 29°16' W 089°21'0 0.0
2012-Dec-04 15:33N 29°16' W 089°21'0 0.0
2012-Dec-04 14:33N 29°16' W 089°21'7 6.8
2012-Dec-04 13:33N 29°22' W 089°18'1616.3
2012-Dec-04 12:33N 29°22' W 088°59'2 0.8
2012-Dec-04 10:33N 29°24' W 089°01'1010.2
2012-Dec-04 09:33N 29°24' W 089°12'1111.1
2012-Dec-04 08:34N 29°16' W 089°21'0 0.0
2012-Dec-04 07:33N 29°16' W 089°21'2 2.0
2012-Dec-04 06:33N 29°18' W 089°20'2 2.2
2012-Dec-04 05:36N 29°16' W 089°21'0 0.1
2012-Dec-04 04:33N 29°16' W 089°21'0 0.0
2012-Dec-04 03:33N 29°16' W 089°21'0 0.0
2012-Dec-04 02:33N 29°16' W 089°21'0 0.0
2012-Dec-04 01:33N 29°16' W 089°21'0 0.0
2012-Dec-04 00:34N 29°16' W 089°21'0 0.0
2012-Dec-03 23:34N 29°16' W 089°21'0 0.0
2012-Dec-03 22:34N 29°16' W 089°21'0 0.0
2012-Dec-03 21:34N 29°16' W 089°21'0 0.0
2012-Dec-03 20:33N 29°16' W 089°21'0 0.0
2012-Dec-03 19:34N 29°16' W 089°21'0 0.0
2012-Dec-03 18:33N 29°16' W 089°21'0 0.1
2012-Dec-03 17:33N 29°16' W 089°21'0 0.0
2012-Dec-03 16:33N 29°16' W 089°21'9 8.6
2012-Dec-03 15:33N 29°24' W 089°19'1614.4
2012-Dec-03 14:28N 29°24' W 089°01'15 8.0
2012-Dec-03 12:33N 29°21' W 089°18'6 6.6
2012-Dec-03 11:36N 29°16' W 089°21'0 0.0
2012-Dec-03 10:33N 29°16' W 089°21'0 0.0
2012-Dec-03 09:33N 29°16' W 089°21'0 0.0
2012-Dec-03 08:33N 29°16' W 089°21'0 0.0
2012-Dec-03 07:33N 29°16' W 089°21'0 0.0
2012-Dec-03 06:33N 29°16' W 089°21'0 0.0
2012-Dec-03 05:37N 29°16' W 089°21'0 0.0
2012-Dec-03 04:33N 29°16' W 089°21'0 0.0
2012-Dec-03 03:33N 29°16' W 089°21'0 0.0
2012-Dec-03 02:33N 29°16' W 089°21'0 0.0
2012-Dec-03 01:33N 29°16' W 089°21'0 0.0
2012-Dec-03 00:33N 29°16' W 089°21'0 0.0
2012-Dec-02 23:33N 29°16' W 089°21'0 0.0
2012-Dec-02 22:33N 29°16' W 089°21'0 0.0
2012-Dec-02 21:33N 29°16' W 089°21'0 0.0
2012-Dec-02 20:33N 29°16' W 089°21'0 0.0
2012-Dec-02 19:33N 29°16' W 089°21'0 0.0
2012-Dec-02 18:33N 29°16' W 089°21'0 0.0
2012-Dec-02 17:33N 29°16' W 089°21'0 0.0
2012-Dec-02 16:33N 29°16' W 089°21'0 0.0
2012-Dec-02 15:33N 29°16' W 089°21'0 0.0
2012-Dec-02 14:33N 29°16' W 089°21'0 0.0
2012-Dec-02 13:33N 29°16' W 089°21'0 0.0
2012-Dec-02 12:33N 29°16' W 089°21'0 0.0
2012-Dec-02 11:36N 29°16' W 089°21'0 0.0
2012-Dec-02 10:33N 29°16' W 089°21'0 0.0
2012-Dec-02 09:33N 29°16' W 089°21'0 0.0
2012-Dec-02 08:33N 29°16' W 089°21'0 0.0
2012-Dec-02 07:33N 29°16' W 089°21'0 0.0
2012-Dec-02 06:33N 29°16' W 089°21'0 0.1
2012-Dec-02 05:38N 29°16' W 089°21'0 0.0
2012-Dec-02 04:33N 29°16' W 089°21'0 0.0
2012-Dec-02 03:33N 29°16' W 089°21'0 0.0
2012-Dec-02 02:33N 29°16' W 089°21'1010.0
2012-Dec-02 01:34N 29°25' W 089°18'6 1.3
2012-Dec-01 20:33N 29°23' W 089°11'9 9.4
2012-Dec-01 19:33N 29°18' W 089°20'2 2.3
2012-Dec-01 18:33N 29°16' W 089°21'0 0.0
2012-Dec-01 17:33N 29°16' W 089°21'0 0.0
2012-Dec-01 16:33N 29°16' W 089°21'0 0.0
2012-Dec-01 15:33N 29°16' W 089°21'3 2.6
2012-Dec-01 14:33N 29°18' W 089°20'8 1.5
2012-Dec-01 09:33N 29°25' W 089°16'1010.3
2012-Dec-01 08:33N 29°16' W 089°21'0 0.1
2012-Dec-01 07:33N 29°16' W 089°21'0 0.4
2012-Dec-01 06:33N 29°16' W 089°21'0 0.0
2012-Dec-01 05:36N 29°16' W 089°21'0 0.0
2012-Dec-01 04:33N 29°16' W 089°21'6 5.7
2012-Dec-01 03:33N 29°21' W 089°18'1513.9
2012-Dec-01 02:29N 29°24' W 089°01'8 8.4
2012-Dec-01 01:29N 29°24' W 089°11'9 9.6
2012-Dec-01 00:34N 29°19' W 089°19'4 3.7
2012-Nov-30 23:34N 29°16' W 089°21'4 3.9
2012-Nov-30 22:34N 29°19' W 089°19'1111.1
2012-Nov-30 21:32N 29°24' W 089°07'6 5.7
2012-Nov-30 20:33N 29°24' W 089°01'0 0.0
2012-Nov-30 19:33N 29°24' W 089°01'13 3.3
2012-Nov-30 15:33N 29°24' W 089°16'9 9.1
2012-Nov-30 14:33N 29°17' W 089°21'1 0.9
2012-Nov-30 13:34N 29°16' W 089°21'0 0.0
2012-Nov-30 12:34N 29°16' W 089°21'0 0.0
2012-Nov-30 11:38N 29°16' W 089°21'2 1.6
2012-Nov-30 10:34N 29°18' W 089°21'10 9.3
2012-Nov-30 09:31N 29°24' W 089°12'5 0.5
2012-Nov-29 23:33N 29°23' W 089°18'8 8.5
2012-Nov-29 22:33N 29°16' W 089°22'0 0.0
2012-Nov-29 21:33N 29°16' W 089°22'0 0.0
2012-Nov-29 20:33N 29°16' W 089°22'0 0.0
2012-Nov-29 19:33N 29°16' W 089°22'0 0.0
2012-Nov-29 18:33N 29°16' W 089°22'1 0.6
2012-Nov-29 17:33N 29°16' W 089°21'2 2.4
2012-Nov-29 16:33N 29°18' W 089°20'10 9.8
2012-Nov-29 15:33N 29°24' W 089°11'9 4.4
2012-Nov-29 13:32N 29°24' W 089°01'1515.7
2012-Nov-29 12:33N 29°23' W 089°18'7 8.0
2012-Nov-29 11:38N 29°16' W 089°21'0 0.0
2012-Nov-29 10:34N 29°16' W 089°21'0 0.0
2012-Nov-29 09:34N 29°16' W 089°21'0 0.0
2012-Nov-29 08:33N 29°16' W 089°21'0 0.0
2012-Nov-29 07:33N 29°16' W 089°21'0 0.0
2012-Nov-29 06:34N 29°16' W 089°21'0 0.0
2012-Nov-29 05:45N 29°16' W 089°21'12 8.7
2012-Nov-29 04:25N 29°24' W 089°12'1010.9
2012-Nov-29 03:29N 29°24' W 089°01'10 9.9
2012-Nov-29 02:29N 29°24' W 089°12'1010.9
2012-Nov-29 01:34N 29°18' W 089°21'2 1.9
2012-Nov-29 00:33N 29°16' W 089°21'0 0.0
2012-Nov-28 23:34N 29°16' W 089°21'0 0.1
2012-Nov-28 22:33N 29°16' W 089°21'0 0.0
2012-Nov-28 21:34N 29°16' W 089°21'0 0.0
2012-Nov-28 20:34N 29°16' W 089°21'5 4.5
2012-Nov-28 19:34N 29°20' W 089°19'10 9.5
2012-Nov-28 18:33N 29°24' W 089°09'9 1.1
2012-Nov-28 10:33N 29°23' W 089°18'7 7.3
2012-Nov-28 09:34N 29°16' W 089°21'0 0.0
2012-Nov-28 08:34N 29°16' W 089°21'0 0.0
2012-Nov-28 07:33N 29°16' W 089°21'1010.3
2012-Nov-28 06:33N 29°25' W 089°16'  

Dump ship's entire track history

sailing weather and tide predictions

Gulf Fury — WDE7751 — position and weather